Flugplatz Weißenhorn

Für EDNW sind keine METAR/TAF Berichte vorhanden.
Es werden die Flugwettermeldungen vom Flugplatz Laupheim Airport in 18 km Entfernung angezeigt.

Bericht für ETHL

vom 07.08. um 17:20 UTC

Wind 8 kt aus 80°

Sichtweite 10 km oder mehr

Temperatur 27.0°C

Taupunkt 14.0°C

Luftfeuchtigkeit 45%

Luftdruck 1021 hPa

ETHL 071720Z AUTO 08008KT 9999 // ////// 27/14 Q1021 ///
Keine Prognose (TAF) verfügbar.
Impressum